createdAt,value
2018-06-03T00:05:33.320Z,15.70
2018-06-03T00:11:37.361Z,15.70
2018-06-03T00:17:41.433Z,15.60
2018-06-03T00:23:45.469Z,15.50
2018-06-03T00:29:49.894Z,15.50
2018-06-03T00:36:12.924Z,15.40
2018-06-03T00:42:17.315Z,15.40
2018-06-03T00:48:21.720Z,15.40
2018-06-03T00:54:26.907Z,15.40
2018-06-03T01:00:31.275Z,15.30
2018-06-03T01:06:35.636Z,15.30
2018-06-03T01:12:39.946Z,15.30
2018-06-03T01:18:45.138Z,15.20
2018-06-03T01:24:49.883Z,15.20
2018-06-03T01:30:54.307Z,15.10
2018-06-03T01:36:58.665Z,15.00
2018-06-03T01:43:03.019Z,14.90
2018-06-03T01:49:07.364Z,14.70
2018-06-03T01:55:12.485Z,14.50
2018-06-03T02:01:16.845Z,14.50
2018-06-03T02:07:22.257Z,14.50
2018-06-03T02:13:26.677Z,14.50
2018-06-03T02:19:31.084Z,14.40
2018-06-03T02:25:36.198Z,14.40
2018-06-03T02:31:40.562Z,14.30
2018-06-03T02:37:44.912Z,14.40
2018-06-03T02:43:50.202Z,14.30
2018-06-03T02:49:55.408Z,14.20
2018-06-03T02:56:00.555Z,14.10
2018-06-03T03:02:05.087Z,14.10
2018-06-03T03:08:10.204Z,14.10
2018-06-03T03:14:14.546Z,14.10
2018-06-03T03:20:19.289Z,14.10
2018-06-03T03:26:23.639Z,14.10
2018-06-03T03:32:28.436Z,14.20
2018-06-03T03:38:32.824Z,14.30
2018-06-03T03:44:37.149Z,14.40
2018-06-03T03:50:41.551Z,14.50
2018-06-03T03:56:45.922Z,14.60
2018-06-03T04:02:50.278Z,14.70
2018-06-03T04:08:54.871Z,14.70
2018-06-03T04:14:59.234Z,14.70
2018-06-03T04:21:03.579Z,14.80
2018-06-03T04:27:08.078Z,14.80
2018-06-03T04:33:13.220Z,15.10
2018-06-03T04:39:17.546Z,15.00
2018-06-03T04:45:21.970Z,15.20
2018-06-03T04:51:26.360Z,15.40
2018-06-03T04:57:32.236Z,15.50
2018-06-03T05:03:36.598Z,15.50
2018-06-03T05:09:40.941Z,15.60
2018-06-03T05:15:46.140Z,16.10
2018-06-03T05:21:50.708Z,16.10
2018-06-03T05:27:56.226Z,16.60
2018-06-03T05:34:01.352Z,17.70
2018-06-03T05:40:05.705Z,17.70
2018-06-03T05:46:10.059Z,17.80
2018-06-03T05:52:15.219Z,18.30
2018-06-03T05:58:19.661Z,18.30
2018-06-03T06:04:25.009Z,18.50
2018-06-03T06:10:29.366Z,18.50
2018-06-03T06:16:33.719Z,18.50
2018-06-03T06:22:38.110Z,18.50
2018-06-03T06:28:42.621Z,18.50
2018-06-03T06:34:47.180Z,18.60
2018-06-03T06:40:51.845Z,18.90
2018-06-03T06:46:56.289Z,19.30
2018-06-03T06:53:00.672Z,19.10
2018-06-03T06:59:05.029Z,19.50
2018-06-03T07:05:10.230Z,19.90
2018-06-03T07:11:14.582Z,19.90
2018-06-03T07:17:20.846Z,21.30
2018-06-03T07:23:25.617Z,21.20
2018-06-03T07:29:30.087Z,21.50
2018-06-03T07:35:35.207Z,21.50
2018-06-03T07:41:39.557Z,21.40
2018-06-03T07:47:43.901Z,21.60
2018-06-03T07:53:49.757Z,21.90
2018-06-03T07:59:54.299Z,21.90
2018-06-03T08:05:58.727Z,22.30
2018-06-03T08:12:03.423Z,22.10
2018-06-03T08:18:07.809Z,22.20
2018-06-03T08:24:12.166Z,22.20
2018-06-03T08:30:16.556Z,22.50
2018-06-03T08:36:21.600Z,23.00
2018-06-03T08:42:25.949Z,23.50
2018-06-03T08:48:31.069Z,24.20
2018-06-03T08:54:35.418Z,24.20
2018-06-03T09:00:40.600Z,24.50
2018-06-03T09:06:45.724Z,24.80
2018-06-03T09:12:50.196Z,24.80
2018-06-03T09:18:54.646Z,25.80
2018-06-03T09:24:59.953Z,25.60
2018-06-03T09:31:07.090Z,25.90
2018-06-03T09:37:11.733Z,25.80
2018-06-03T09:43:16.102Z,26.50
2018-06-03T09:49:20.634Z,27.20
2018-06-03T09:55:25.246Z,27.70
2018-06-03T10:01:29.606Z,27.60
2018-06-03T10:07:33.970Z,27.20
2018-06-03T10:13:38.359Z,27.40
2018-06-03T10:19:42.718Z,26.60
2018-06-03T10:25:47.030Z,26.60
2018-06-03T10:31:52.257Z,27.50
2018-06-03T10:37:57.485Z,27.50
2018-06-03T10:44:01.849Z,27.50
2018-06-03T10:50:06.195Z,27.40
2018-06-03T10:56:10.563Z,27.70
2018-06-03T11:02:14.911Z,27.30
2018-06-03T11:08:21.128Z,26.70
2018-06-03T11:14:25.573Z,26.60
2018-06-03T11:20:29.986Z,27.00
2018-06-03T11:26:34.341Z,26.50
2018-06-03T11:32:38.708Z,25.80
2018-06-03T11:38:43.076Z,25.30
2018-06-03T11:44:47.467Z,25.40
2018-06-03T11:50:52.052Z,24.80
2018-06-03T11:57:00.376Z,24.80
2018-06-03T12:03:05.488Z,24.50
2018-06-03T12:09:09.850Z,24.40
2018-06-03T12:15:15.145Z,24.90
2018-06-03T12:21:20.252Z,24.30
2018-06-03T12:27:25.073Z,24.30
2018-06-03T12:33:29.457Z,24.20
2018-06-03T12:39:33.809Z,24.10
2018-06-03T12:45:38.214Z,24.20
2018-06-03T12:51:42.640Z,24.20
2018-06-03T12:57:47.002Z,24.30
2018-06-03T13:03:52.295Z,25.60
2018-06-03T13:09:57.560Z,26.50
2018-06-03T13:16:49.779Z,26.40
2018-06-03T13:22:55.917Z,26.40
2018-06-03T13:29:01.751Z,26.50
2018-06-03T13:35:07.571Z,26.80
2018-06-03T13:41:13.270Z,27.00
2018-06-03T13:47:19.421Z,27.30
2018-06-03T13:53:25.613Z,27.50
2018-06-03T13:59:31.272Z,28.20
2018-06-03T14:05:37.004Z,28.30
2018-06-03T14:11:42.783Z,28.40
2018-06-03T14:17:48.393Z,28.70
2018-06-03T14:23:54.249Z,30.00
2018-06-03T14:30:00.182Z,30.40
2018-06-03T14:36:05.945Z,31.50
2018-06-03T14:42:12.033Z,31.40
2018-06-03T14:48:17.784Z,30.60
2018-06-03T14:54:24.189Z,30.10
2018-06-03T15:00:30.476Z,29.50
2018-06-03T15:06:36.244Z,29.00
2018-06-03T15:12:41.993Z,29.00
2018-06-03T15:18:47.681Z,29.40
2018-06-03T15:24:53.835Z,28.80
2018-06-03T15:30:59.551Z,29.40
2018-06-03T15:37:05.400Z,29.50
2018-06-03T15:43:11.077Z,28.60
2018-06-03T15:49:16.700Z,27.60
2018-06-03T15:55:23.568Z,27.10
2018-06-03T16:01:29.404Z,26.90
2018-06-03T16:07:35.054Z,26.70
2018-06-03T16:13:40.831Z,26.60
2018-06-03T16:19:46.403Z,26.40
2018-06-03T16:25:52.278Z,27.00
2018-06-03T16:31:57.977Z,28.10
2018-06-03T16:38:03.617Z,28.90
2018-06-03T16:44:09.279Z,29.40
2018-06-03T16:50:14.924Z,30.10
2018-06-03T16:56:20.890Z,30.70
2018-06-03T17:02:26.764Z,31.40
2018-06-03T17:08:32.437Z,32.00
2018-06-03T17:14:38.158Z,31.30
2018-06-03T17:20:43.917Z,31.50
2018-06-03T17:26:49.962Z,30.90
2018-06-03T17:32:55.934Z,30.80
2018-06-03T17:39:01.577Z,31.40
2018-06-03T17:45:07.279Z,31.50
2018-06-03T17:51:12.937Z,31.20
2018-06-03T17:57:18.605Z,30.70
2018-06-03T18:03:25.038Z,30.40
2018-06-03T18:09:30.845Z,28.50
2018-06-03T18:15:36.504Z,27.50
2018-06-03T18:21:42.534Z,27.60
2018-06-03T18:27:48.433Z,27.50
2018-06-03T18:33:54.752Z,27.20
2018-06-03T18:40:00.414Z,27.10
2018-06-03T18:46:06.178Z,26.80
2018-06-03T18:52:11.905Z,26.10
2018-06-03T18:58:17.682Z,25.10
2018-06-03T19:04:23.783Z,24.00
2018-06-03T19:10:29.616Z,23.20
2018-06-03T19:16:35.316Z,22.40
2018-06-03T19:22:41.175Z,21.80
2018-06-03T19:28:46.779Z,21.30
2018-06-03T19:34:53.369Z,20.90
2018-06-03T19:40:59.270Z,20.50
2018-06-03T19:47:05.266Z,20.20
2018-06-03T19:53:11.112Z,19.90
2018-06-03T19:59:16.781Z,19.80
2018-06-03T20:05:22.599Z,19.50
2018-06-03T20:11:28.572Z,19.30
2018-06-03T20:17:34.283Z,19.20
2018-06-03T20:23:40.199Z,19.00
2018-06-03T20:29:45.836Z,18.80
2018-06-03T20:35:52.657Z,18.50
2018-06-03T20:41:58.651Z,18.30
2018-06-03T20:48:04.357Z,18.20
2018-06-03T20:54:10.176Z,18.20
2018-06-03T21:00:15.857Z,18.10
2018-06-03T21:06:22.160Z,17.90
2018-06-03T21:12:27.973Z,17.70
2018-06-03T21:18:33.745Z,17.50
2018-06-03T21:24:39.791Z,17.40
2018-06-03T21:30:45.504Z,17.30
2018-06-03T21:36:52.558Z,17.30
2018-06-03T21:42:58.657Z,17.30
2018-06-03T21:49:04.429Z,17.30
2018-06-03T21:55:10.156Z,17.20
2018-06-03T22:01:15.818Z,17.10
2018-06-03T22:07:23.172Z,16.90
2018-06-03T22:13:29.139Z,16.90
2018-06-03T22:19:34.793Z,16.80
2018-06-03T22:25:40.480Z,16.70
2018-06-03T22:31:46.203Z,16.70
2018-06-03T22:37:52.467Z,16.60
2018-06-03T22:43:58.670Z,16.50
2018-06-03T22:50:04.390Z,16.40
2018-06-03T22:56:10.213Z,16.40
2018-06-03T23:02:16.065Z,16.30
2018-06-03T23:08:22.740Z,16.30
2018-06-03T23:14:28.803Z,16.20
2018-06-03T23:20:34.665Z,16.10
2018-06-03T23:26:40.421Z,16.00
2018-06-03T23:32:46.177Z,16.00
2018-06-03T23:38:53.211Z,16.00
2018-06-03T23:44:59.247Z,15.80
2018-06-03T23:51:05.033Z,15.70
2018-06-03T23:57:10.861Z,15.80
